createdAt,value
2023-03-13T00:01:33.118Z,99.90
2023-03-13T00:03:59.956Z,99.90
2023-03-13T00:06:32.397Z,99.90
2023-03-13T00:09:02.613Z,99.90
2023-03-13T00:11:32.380Z,99.90
2023-03-13T00:14:03.131Z,99.90
2023-03-13T00:16:30.750Z,99.90
2023-03-13T00:18:58.491Z,99.90
2023-03-13T00:21:30.372Z,99.90
2023-03-13T00:23:59.517Z,99.90
2023-03-13T00:26:27.577Z,99.90
2023-03-13T00:28:58.938Z,99.90
2023-03-13T00:31:34.232Z,99.90
2023-03-13T00:34:06.712Z,99.90
2023-03-13T00:36:37.588Z,99.90
2023-03-13T00:39:06.213Z,99.90
2023-03-13T00:41:36.637Z,99.90
2023-03-13T00:46:38.473Z,99.90
2023-03-13T00:49:07.968Z,99.90
2023-03-13T00:51:36.999Z,99.90
2023-03-13T00:54:06.203Z,99.90
2023-03-13T00:56:35.470Z,99.90
2023-03-13T00:59:02.362Z,99.90
2023-03-13T01:01:32.545Z,99.90
2023-03-13T01:04:01.821Z,99.90
2023-03-13T01:06:30.459Z,99.90
2023-03-13T01:08:57.928Z,99.90
2023-03-13T01:11:30.153Z,99.90
2023-03-13T01:13:59.138Z,99.90
2023-03-13T01:16:29.788Z,99.90
2023-03-13T01:19:00.282Z,99.90
2023-03-13T01:21:29.851Z,99.90
2023-03-13T01:23:56.885Z,99.90
2023-03-13T01:26:26.413Z,99.90
2023-03-13T01:28:55.347Z,99.90
2023-03-13T01:31:26.113Z,99.90
2023-03-13T01:33:58.574Z,99.90
2023-03-13T01:36:26.891Z,99.90
2023-03-13T01:39:02.311Z,99.90
2023-03-13T01:41:30.435Z,99.90
2023-03-13T01:43:57.938Z,99.90
2023-03-13T01:46:27.891Z,99.90
2023-03-13T01:49:05.072Z,99.90
2023-03-13T01:51:37.581Z,99.90
2023-03-13T01:54:10.557Z,99.90
2023-03-13T01:56:43.033Z,99.90
2023-03-13T01:59:15.577Z,99.90
2023-03-13T02:01:46.589Z,99.90
2023-03-13T02:04:16.230Z,99.90
2023-03-13T02:06:48.271Z,99.90
2023-03-13T02:09:22.670Z,99.90
2023-03-13T02:11:55.819Z,99.90
2023-03-13T02:14:27.436Z,99.90
2023-03-13T02:16:55.938Z,99.90
2023-03-13T02:19:36.586Z,99.90
2023-03-13T02:22:41.985Z,99.90
2023-03-13T02:25:11.817Z,99.90
2023-03-13T02:27:39.469Z,99.90
2023-03-13T02:30:13.176Z,99.90
2023-03-13T02:32:40.857Z,99.90
2023-03-13T02:35:14.362Z,99.90
2023-03-13T02:37:47.936Z,99.90
2023-03-13T02:40:20.638Z,99.90
2023-03-13T02:42:48.399Z,99.90
2023-03-13T02:45:21.070Z,99.90
2023-03-13T02:47:47.712Z,99.90
2023-03-13T02:50:15.410Z,99.90
2023-03-13T02:52:53.857Z,99.90
2023-03-13T02:55:31.141Z,99.90
2023-03-13T03:00:29.361Z,99.90
2023-03-13T03:02:56.370Z,99.90
2023-03-13T03:05:25.413Z,99.90
2023-03-13T03:07:52.140Z,99.90
2023-03-13T03:10:19.369Z,99.90
2023-03-13T03:12:46.120Z,99.90
2023-03-13T03:15:14.995Z,99.90
2023-03-13T03:17:41.719Z,99.90
2023-03-13T03:20:11.904Z,99.90
2023-03-13T03:22:40.786Z,99.90
2023-03-13T03:25:11.117Z,99.90
2023-03-13T03:30:06.025Z,99.90
2023-03-13T03:32:32.921Z,99.90
2023-03-13T03:35:04.131Z,99.90
2023-03-13T03:37:33.360Z,99.90
2023-03-13T03:40:02.507Z,99.90
2023-03-13T03:42:31.444Z,99.90
2023-03-13T03:45:00.322Z,99.90
2023-03-13T03:49:54.235Z,99.90
2023-03-13T03:52:23.157Z,99.90
2023-03-13T03:54:49.899Z,99.90
2023-03-13T03:57:19.040Z,99.90
2023-03-13T03:59:46.002Z,99.90
2023-03-13T04:02:15.004Z,99.90
2023-03-13T04:04:44.196Z,99.90
2023-03-13T04:07:10.936Z,99.90
2023-03-13T04:12:05.019Z,99.90
2023-03-13T04:14:33.954Z,99.90
2023-03-13T04:17:00.777Z,99.90
2023-03-13T04:19:30.043Z,99.90
2023-03-13T04:24:28.217Z,99.90
2023-03-13T04:26:54.906Z,99.90
2023-03-13T04:29:21.639Z,99.90
2023-03-13T04:31:48.336Z,99.90
2023-03-13T04:34:17.372Z,99.90
2023-03-13T04:39:11.427Z,99.90
2023-03-13T04:41:40.783Z,99.90
2023-03-13T04:44:10.073Z,99.90
2023-03-13T04:46:36.828Z,99.90
2023-03-13T04:51:37.915Z,99.90
2023-03-13T04:54:11.887Z,99.90
2023-03-13T04:59:14.880Z,99.90
2023-03-13T05:01:42.509Z,99.90
2023-03-13T05:04:09.781Z,99.90
2023-03-13T05:06:38.783Z,99.90
2023-03-13T05:09:05.874Z,99.90
2023-03-13T05:11:37.256Z,99.90
2023-03-13T05:14:04.514Z,99.90
2023-03-13T05:16:31.286Z,99.90
2023-03-13T05:18:58.028Z,99.90
2023-03-13T05:21:24.808Z,99.90
2023-03-13T05:26:20.726Z,99.90
2023-03-13T05:28:47.380Z,99.90
2023-03-13T05:31:14.145Z,99.90
2023-03-13T05:36:10.826Z,99.90
2023-03-13T05:41:07.374Z,99.90
2023-03-13T05:43:33.995Z,99.90
2023-03-13T05:46:00.878Z,99.90
2023-03-13T05:48:27.612Z,99.90
2023-03-13T05:50:57.101Z,99.90
2023-03-13T05:53:23.846Z,99.90
2023-03-13T05:55:52.951Z,99.90
2023-03-13T05:58:24.348Z,99.90
2023-03-13T06:00:51.020Z,99.90
2023-03-13T06:03:22.173Z,99.90
2023-03-13T06:05:48.862Z,99.90
2023-03-13T06:10:45.138Z,99.90
2023-03-13T06:13:20.174Z,99.90
2023-03-13T06:15:59.629Z,99.90
2023-03-13T06:18:29.028Z,99.90
2023-03-13T06:21:00.310Z,99.90
2023-03-13T06:23:27.801Z,99.90
2023-03-13T06:25:59.111Z,99.90
2023-03-13T06:28:28.767Z,99.90
2023-03-13T06:30:55.432Z,99.90
2023-03-13T06:33:22.234Z,99.90
2023-03-13T06:35:56.358Z,99.90
2023-03-13T06:38:24.866Z,99.90
2023-03-13T06:40:53.925Z,99.90
2023-03-13T06:43:21.404Z,99.90
2023-03-13T06:48:18.237Z,99.90
2023-03-13T06:50:47.412Z,99.90
2023-03-13T06:53:19.463Z,99.90
2023-03-13T06:55:51.382Z,99.90
2023-03-13T06:58:31.562Z,99.90
2023-03-13T07:01:07.683Z,99.90
2023-03-13T07:03:35.261Z,99.90
2023-03-13T07:06:02.242Z,99.90
2023-03-13T07:08:32.750Z,99.90
2023-03-13T07:11:07.346Z,99.90
2023-03-13T07:13:36.792Z,99.90
2023-03-13T07:16:09.363Z,99.90
2023-03-13T07:18:36.611Z,99.90
2023-03-13T07:21:07.417Z,99.90
2023-03-13T07:23:37.517Z,99.90
2023-03-13T07:26:07.754Z,99.90
2023-03-13T07:28:37.576Z,99.90
2023-03-13T07:31:09.192Z,99.90
2023-03-13T07:33:36.029Z,99.90
2023-03-13T07:36:03.426Z,99.90
2023-03-13T07:38:30.237Z,99.90
2023-03-13T07:41:01.239Z,99.90
2023-03-13T07:46:03.896Z,99.90
2023-03-13T07:48:33.245Z,99.90
2023-03-13T07:51:00.553Z,99.90
2023-03-13T07:53:28.344Z,99.90
2023-03-13T07:56:03.952Z,99.90
2023-03-13T07:58:33.920Z,99.90
2023-03-13T08:01:01.036Z,99.90
2023-03-13T08:03:29.017Z,99.90
2023-03-13T08:06:06.984Z,99.90
2023-03-13T08:08:33.692Z,99.90
2023-03-13T08:11:10.146Z,99.90
2023-03-13T08:13:41.271Z,99.90
2023-03-13T08:16:13.527Z,99.90
2023-03-13T08:18:43.159Z,99.90
2023-03-13T08:21:32.176Z,99.90
2023-03-13T08:24:05.917Z,99.90
2023-03-13T08:26:37.260Z,99.90
2023-03-13T08:29:12.820Z,99.90
2023-03-13T08:31:45.602Z,99.90
2023-03-13T08:34:13.251Z,99.90
2023-03-13T08:36:42.095Z,99.90
2023-03-13T08:39:17.049Z,99.90
2023-03-13T08:41:44.405Z,99.90
2023-03-13T08:44:17.744Z,99.90
2023-03-13T08:46:48.067Z,99.90
2023-03-13T08:49:17.734Z,99.90
2023-03-13T08:51:45.087Z,99.90
2023-03-13T08:54:11.868Z,99.90
2023-03-13T08:56:38.913Z,99.90
2023-03-13T08:59:06.462Z,99.90
2023-03-13T09:01:39.420Z,99.90
2023-03-13T09:04:06.679Z,99.90
2023-03-13T09:06:38.576Z,99.90
2023-03-13T09:09:08.633Z,99.90
2023-03-13T09:11:37.280Z,99.90
2023-03-13T09:14:07.227Z,99.90
2023-03-13T09:16:40.245Z,99.90
2023-03-13T09:19:09.557Z,99.90
2023-03-13T09:21:36.776Z,99.90
2023-03-13T09:24:06.040Z,99.90
2023-03-13T09:26:32.755Z,99.90
2023-03-13T09:29:01.802Z,99.90
2023-03-13T09:31:35.117Z,99.90
2023-03-13T09:34:01.966Z,99.90
2023-03-13T09:36:31.154Z,99.90
2023-03-13T09:38:59.647Z,99.90
2023-03-13T09:41:43.954Z,99.90
2023-03-13T09:44:32.731Z,99.90
2023-03-13T09:47:10.942Z,99.90
2023-03-13T09:49:44.091Z,99.90
2023-03-13T09:52:15.076Z,99.90
2023-03-13T09:55:08.553Z,99.90
2023-03-13T09:57:37.888Z,99.90
2023-03-13T10:00:16.443Z,99.90
2023-03-13T10:02:53.186Z,99.90
2023-03-13T10:05:23.482Z,99.90
2023-03-13T10:07:50.924Z,99.90
2023-03-13T10:10:22.022Z,99.90
2023-03-13T10:12:57.583Z,99.90
2023-03-13T10:15:59.298Z,99.90
2023-03-13T10:18:28.866Z,99.90
2023-03-13T10:21:20.568Z,99.90
2023-03-13T10:23:56.212Z,99.90
2023-03-13T10:26:27.850Z,99.90
2023-03-13T10:29:02.066Z,99.90
2023-03-13T10:31:37.400Z,99.90
2023-03-13T10:34:11.674Z,99.90
2023-03-13T10:36:50.082Z,99.90
2023-03-13T10:39:19.891Z,99.90
2023-03-13T10:41:48.022Z,99.40
2023-03-13T10:44:19.091Z,99.10
2023-03-13T10:46:50.454Z,98.90
2023-03-13T10:49:20.327Z,97.80
2023-03-13T10:52:03.724Z,98.00
2023-03-13T10:54:37.470Z,97.50
2023-03-13T10:57:18.989Z,97.00
2023-03-13T10:59:48.521Z,96.40
2023-03-13T11:02:34.037Z,96.50
2023-03-13T11:07:38.030Z,94.80
2023-03-13T11:10:13.655Z,94.20
2023-03-13T11:12:46.314Z,94.40
2023-03-13T11:15:20.342Z,93.80
2023-03-13T11:18:04.689Z,92.90
2023-03-13T11:20:36.455Z,92.10
2023-03-13T11:23:35.614Z,92.10
2023-03-13T11:26:06.876Z,92.20
2023-03-13T11:28:58.284Z,92.20
2023-03-13T11:31:45.234Z,92.40
2023-03-13T11:34:17.774Z,92.00
2023-03-13T11:37:11.098Z,91.80
2023-03-13T11:40:02.502Z,91.20
2023-03-13T11:42:57.935Z,90.70
2023-03-13T11:45:58.850Z,90.50
2023-03-13T11:50:56.924Z,90.40
2023-03-13T11:54:05.322Z,90.10
2023-03-13T11:56:49.328Z,89.90
2023-03-13T11:59:22.081Z,89.10
2023-03-13T12:01:54.787Z,88.70
2023-03-13T12:04:51.823Z,87.60
2023-03-13T12:07:31.465Z,86.80
2023-03-13T12:10:02.291Z,86.40
2023-03-13T12:12:35.680Z,86.60
2023-03-13T12:15:14.448Z,87.90
2023-03-13T12:17:51.024Z,84.80
2023-03-13T12:20:26.017Z,85.70
2023-03-13T12:23:32.244Z,85.70
2023-03-13T12:26:08.795Z,84.70
2023-03-13T12:28:56.488Z,84.80
2023-03-13T12:31:33.683Z,84.80
2023-03-13T12:34:09.219Z,85.00
2023-03-13T12:36:38.049Z,83.30
2023-03-13T12:39:22.843Z,83.70
2023-03-13T12:42:16.898Z,83.40
2023-03-13T12:44:43.802Z,83.30
2023-03-13T12:47:46.962Z,83.00
2023-03-13T12:50:42.191Z,82.90
2023-03-13T12:53:27.523Z,82.60
2023-03-13T12:56:06.045Z,83.40
2023-03-13T12:58:52.944Z,81.60
2023-03-13T13:01:33.618Z,81.10
2023-03-13T13:04:28.617Z,80.70
2023-03-13T13:07:03.118Z,81.20
2023-03-13T13:09:42.016Z,81.90
2023-03-13T13:12:14.503Z,81.30
2023-03-13T13:14:50.313Z,81.40
2023-03-13T13:17:35.154Z,81.50
2023-03-13T13:20:25.999Z,82.00
2023-03-13T13:22:53.727Z,81.90
2023-03-13T13:25:38.017Z,81.30
2023-03-13T13:28:22.711Z,81.90
2023-03-13T13:30:55.836Z,81.80
2023-03-13T13:33:34.964Z,82.10
2023-03-13T13:36:10.618Z,82.90
2023-03-13T13:38:41.856Z,83.30
2023-03-13T13:41:11.598Z,83.10
2023-03-13T13:44:24.317Z,82.90
2023-03-13T13:46:51.293Z,83.00
2023-03-13T13:49:35.516Z,83.00
2023-03-13T13:52:04.334Z,82.40
2023-03-13T13:54:55.988Z,81.90
2023-03-13T13:57:29.946Z,81.70
2023-03-13T14:00:55.593Z,81.20
2023-03-13T14:03:27.208Z,81.80
2023-03-13T14:06:05.852Z,81.70
2023-03-13T14:08:42.236Z,81.60
2023-03-13T14:11:38.661Z,82.00
2023-03-13T14:14:19.669Z,82.50
2023-03-13T14:16:51.480Z,82.80
2023-03-13T14:19:30.420Z,81.60
2023-03-13T14:22:05.980Z,80.70
2023-03-13T14:24:32.685Z,81.50
2023-03-13T14:26:59.996Z,81.60
2023-03-13T14:29:26.889Z,81.70
2023-03-13T14:31:58.931Z,82.30
2023-03-13T14:34:28.981Z,82.80
2023-03-13T14:37:16.864Z,83.70
2023-03-13T14:39:45.366Z,84.10
2023-03-13T14:42:17.262Z,84.30
2023-03-13T14:44:47.250Z,84.80
2023-03-13T14:47:34.365Z,84.70
2023-03-13T14:50:04.521Z,85.20
2023-03-13T14:52:35.289Z,85.90
2023-03-13T14:55:27.430Z,85.80
2023-03-13T14:57:55.920Z,86.90
2023-03-13T15:00:39.283Z,86.50
2023-03-13T15:03:20.212Z,86.40
2023-03-13T15:06:12.236Z,86.60
2023-03-13T15:08:44.631Z,87.10
2023-03-13T15:11:26.543Z,86.20
2023-03-13T15:13:54.103Z,86.10
2023-03-13T15:16:22.661Z,86.00
2023-03-13T15:18:51.365Z,86.20
2023-03-13T15:21:28.812Z,86.10
2023-03-13T15:24:14.848Z,86.80
2023-03-13T15:26:43.831Z,86.70
2023-03-13T15:29:13.406Z,87.30
2023-03-13T15:31:44.913Z,87.20
2023-03-13T15:34:14.988Z,87.30
2023-03-13T15:36:44.118Z,87.20
2023-03-13T15:39:23.064Z,87.10
2023-03-13T15:41:49.837Z,87.90
2023-03-13T15:46:46.177Z,87.60
2023-03-13T15:51:40.187Z,86.90
2023-03-13T15:54:06.937Z,87.60
2023-03-13T15:56:39.423Z,87.30
2023-03-13T15:59:16.347Z,87.40
2023-03-13T16:01:45.452Z,87.70
2023-03-13T16:04:12.252Z,87.60
2023-03-13T16:06:39.035Z,87.50
2023-03-13T16:09:09.341Z,87.10
2023-03-13T16:11:36.040Z,87.00
2023-03-13T16:14:02.779Z,86.80
2023-03-13T16:16:36.510Z,87.30
2023-03-13T16:19:04.264Z,87.60
2023-03-13T16:21:33.150Z,88.30
2023-03-13T16:24:02.433Z,88.20
2023-03-13T16:26:31.074Z,90.00
2023-03-13T16:29:00.600Z,90.20
2023-03-13T16:31:33.489Z,90.90
2023-03-13T16:34:03.557Z,91.10
2023-03-13T16:36:32.256Z,91.30
2023-03-13T16:39:04.136Z,91.40
2023-03-13T16:41:31.133Z,92.30
2023-03-13T16:43:57.972Z,92.60
2023-03-13T16:46:39.207Z,92.70
2023-03-13T16:49:15.792Z,92.70
2023-03-13T16:54:12.067Z,93.50
2023-03-13T16:56:42.165Z,93.70
2023-03-13T16:59:14.519Z,94.20
2023-03-13T17:01:41.291Z,94.90
2023-03-13T17:04:08.199Z,95.30
2023-03-13T17:06:41.381Z,95.40
2023-03-13T17:09:15.189Z,96.20
2023-03-13T17:11:42.801Z,96.90
2023-03-13T17:14:10.236Z,97.30
2023-03-13T17:16:41.083Z,97.70
2023-03-13T17:19:07.914Z,98.20
2023-03-13T17:21:37.421Z,98.60
2023-03-13T17:24:07.722Z,99.10
2023-03-13T17:26:41.777Z,99.50
2023-03-13T17:29:12.697Z,99.90
2023-03-13T17:31:41.904Z,99.90
2023-03-13T17:34:16.870Z,99.90
2023-03-13T17:36:44.561Z,99.90
2023-03-13T17:41:40.520Z,99.90
2023-03-13T17:44:07.709Z,99.90
2023-03-13T17:46:47.422Z,99.90
2023-03-13T17:51:44.455Z,99.90
2023-03-13T17:54:11.541Z,99.90
2023-03-13T17:56:42.836Z,99.90
2023-03-13T17:59:17.460Z,99.90
2023-03-13T18:01:44.683Z,99.90
2023-03-13T18:06:42.398Z,99.90
2023-03-13T18:09:17.648Z,99.90
2023-03-13T18:11:47.926Z,99.90
2023-03-13T18:16:51.005Z,99.90
2023-03-13T18:19:23.478Z,99.90
2023-03-13T18:21:52.575Z,99.90
2023-03-13T18:24:22.654Z,99.90
2023-03-13T18:26:52.146Z,99.90
2023-03-13T18:29:27.783Z,99.90
2023-03-13T18:32:00.257Z,99.90
2023-03-13T18:34:27.647Z,99.90
2023-03-13T18:36:55.237Z,99.90
2023-03-13T18:39:25.085Z,99.90
2023-03-13T18:41:52.678Z,99.90
2023-03-13T18:44:20.904Z,99.90
2023-03-13T18:46:47.702Z,99.90
2023-03-13T18:51:52.720Z,99.90
2023-03-13T18:54:20.119Z,99.90
2023-03-13T18:56:47.667Z,99.90
2023-03-13T18:59:20.798Z,99.90
2023-03-13T19:01:52.427Z,99.90
2023-03-13T19:04:19.588Z,99.90
2023-03-13T19:06:49.072Z,99.90
2023-03-13T19:09:42.705Z,99.90
2023-03-13T19:12:08.443Z,99.90
2023-03-13T19:17:15.265Z,99.90
2023-03-13T19:19:41.953Z,99.90
2023-03-13T19:22:13.644Z,99.90
2023-03-13T19:24:40.571Z,99.90
2023-03-13T19:27:07.308Z,99.90
2023-03-13T19:29:36.559Z,99.90
2023-03-13T19:32:07.536Z,99.90
2023-03-13T19:34:34.315Z,99.90
2023-03-13T19:37:01.067Z,99.90
2023-03-13T19:39:27.841Z,99.90
2023-03-13T19:41:54.696Z,99.90
2023-03-13T19:44:21.671Z,99.90
2023-03-13T19:46:51.009Z,99.90
2023-03-13T19:49:22.040Z,99.90
2023-03-13T19:54:21.349Z,99.90
2023-03-13T19:56:48.992Z,99.90
2023-03-13T19:59:17.194Z,99.90
2023-03-13T20:01:44.570Z,99.90
2023-03-13T20:04:12.248Z,99.90
2023-03-13T20:06:40.350Z,99.90
2023-03-13T20:09:09.720Z,99.90
2023-03-13T20:11:37.055Z,99.90
2023-03-13T20:14:04.907Z,99.90
2023-03-13T20:16:33.648Z,99.90
2023-03-13T20:19:01.905Z,99.90
2023-03-13T20:21:30.328Z,99.90
2023-03-13T20:24:00.156Z,99.90
2023-03-13T20:26:28.311Z,99.90
2023-03-13T20:28:58.503Z,99.90
2023-03-13T20:31:32.122Z,99.90
2023-03-13T20:34:02.287Z,99.90
2023-03-13T20:36:29.111Z,99.90
2023-03-13T20:38:55.952Z,99.90
2023-03-13T20:41:25.724Z,99.90
2023-03-13T20:43:55.186Z,99.90
2023-03-13T20:46:23.293Z,99.90
2023-03-13T20:48:52.635Z,99.90
2023-03-13T20:51:21.846Z,99.90
2023-03-13T20:53:50.766Z,99.90
2023-03-13T20:56:17.437Z,99.90
2023-03-13T20:58:44.110Z,99.90
2023-03-13T21:01:13.314Z,99.90
2023-03-13T21:03:40.346Z,99.90
2023-03-13T21:06:14.179Z,99.90
2023-03-13T21:08:41.920Z,99.90
2023-03-13T21:11:13.086Z,99.90
2023-03-13T21:13:39.842Z,99.90
2023-03-13T21:16:09.527Z,99.90
2023-03-13T21:21:12.549Z,99.90
2023-03-13T21:26:09.400Z,99.90
2023-03-13T21:31:14.931Z,99.90
2023-03-13T21:33:45.645Z,99.90
2023-03-13T21:36:16.516Z,99.90
2023-03-13T21:38:43.866Z,99.90
2023-03-13T21:41:13.046Z,99.90
2023-03-13T21:43:43.571Z,99.90
2023-03-13T21:46:15.865Z,99.90
2023-03-13T21:53:42.048Z,99.90
2023-03-13T21:56:15.273Z,99.90
2023-03-13T21:58:42.745Z,99.90
2023-03-13T22:01:12.249Z,99.90
2023-03-13T22:03:43.968Z,99.90
2023-03-13T22:06:19.280Z,99.90
2023-03-13T22:08:47.739Z,99.90
2023-03-13T22:11:14.626Z,99.90
2023-03-13T22:13:41.615Z,99.90
2023-03-13T22:16:11.537Z,99.90
2023-03-13T22:18:43.122Z,99.90
2023-03-13T22:21:10.165Z,99.90
2023-03-13T22:23:38.643Z,99.90
2023-03-13T22:26:10.465Z,99.90
2023-03-13T22:31:08.440Z,99.90
2023-03-13T22:36:02.545Z,99.90
2023-03-13T22:38:38.967Z,99.90
2023-03-13T22:41:10.346Z,99.90
2023-03-13T22:43:37.143Z,99.90
2023-03-13T22:46:07.133Z,99.90
2023-03-13T22:48:33.864Z,99.90
2023-03-13T22:51:07.300Z,99.90
2023-03-13T22:53:37.086Z,99.90
2023-03-13T22:56:04.284Z,99.90
2023-03-13T22:58:35.892Z,99.90
2023-03-13T23:01:06.510Z,99.90
2023-03-13T23:03:33.423Z,99.90
2023-03-13T23:06:04.101Z,99.90
2023-03-13T23:08:30.808Z,99.90
2023-03-13T23:11:02.758Z,99.90
2023-03-13T23:13:30.345Z,99.90
2023-03-13T23:15:57.600Z,99.90
2023-03-13T23:18:28.445Z,99.90
2023-03-13T23:20:57.792Z,99.90
2023-03-13T23:23:26.860Z,99.90
2023-03-13T23:25:53.522Z,99.90
2023-03-13T23:28:25.244Z,99.90
2023-03-13T23:30:52.140Z,99.90
2023-03-13T23:33:19.180Z,99.90
2023-03-13T23:35:45.929Z,99.90
2023-03-13T23:38:13.206Z,99.90
2023-03-13T23:43:09.324Z,99.90
2023-03-13T23:45:36.604Z,99.90
2023-03-13T23:48:04.982Z,99.90
2023-03-13T23:53:00.944Z,99.90
2023-03-13T23:55:27.645Z,99.90
2023-03-13T23:57:54.330Z,99.90
